createdAt,value
2023-01-21T00:01:23.175Z,3.86
2023-01-21T00:03:51.448Z,3.47
2023-01-21T00:06:19.758Z,3.71
2023-01-21T00:08:49.340Z,3.87
2023-01-21T00:11:18.029Z,3.79
2023-01-21T00:13:46.493Z,3.81
2023-01-21T00:16:15.041Z,3.85
2023-01-21T00:18:43.450Z,3.83
2023-01-21T00:21:11.745Z,3.74
2023-01-21T00:23:40.019Z,3.78
2023-01-21T00:26:12.510Z,3.70
2023-01-21T00:28:41.782Z,3.68
2023-01-21T00:31:11.958Z,3.77
2023-01-21T00:33:40.468Z,3.75
2023-01-21T00:36:11.732Z,3.79
2023-01-21T00:38:40.420Z,3.76
2023-01-21T00:41:12.521Z,3.77
2023-01-21T00:43:42.070Z,3.87
2023-01-21T00:46:12.024Z,3.80
2023-01-21T00:48:40.731Z,3.85
2023-01-21T00:51:09.903Z,3.89
2023-01-21T00:53:41.838Z,3.86
2023-01-21T00:56:13.918Z,3.85
2023-01-21T00:58:43.392Z,3.81
2023-01-21T01:01:13.681Z,3.86
2023-01-21T01:03:42.797Z,3.81
2023-01-21T01:06:13.911Z,3.35
2023-01-21T01:08:43.786Z,3.83
2023-01-21T01:11:14.693Z,3.85
2023-01-21T01:13:43.423Z,3.83
2023-01-21T01:16:15.643Z,3.70
2023-01-21T01:18:44.571Z,3.26
2023-01-21T01:21:15.390Z,3.79
2023-01-21T01:23:44.861Z,3.66
2023-01-21T01:26:18.067Z,3.62
2023-01-21T01:28:46.932Z,3.61
2023-01-21T01:31:17.893Z,3.56
2023-01-21T01:33:47.284Z,3.55
2023-01-21T01:36:18.210Z,1.32
2023-01-21T01:38:47.527Z,3.52
2023-01-21T01:41:20.230Z,3.54
2023-01-21T01:43:57.318Z,3.52
2023-01-21T01:46:27.850Z,3.49
2023-01-21T01:49:04.141Z,3.07
2023-01-21T01:51:45.929Z,3.40
2023-01-21T01:54:19.756Z,3.56
2023-01-21T01:56:53.540Z,3.57
2023-01-21T01:59:22.194Z,3.58
2023-01-21T02:01:50.848Z,3.68
2023-01-21T02:04:24.689Z,3.63
2023-01-21T02:06:55.853Z,3.36
2023-01-21T02:09:29.593Z,3.56
2023-01-21T02:12:01.553Z,3.66
2023-01-21T02:14:30.808Z,3.67
2023-01-21T02:17:14.410Z,3.61
2023-01-21T02:20:21.724Z,3.63
2023-01-21T02:23:00.451Z,3.64
2023-01-21T02:26:17.683Z,3.69
2023-01-21T02:29:29.994Z,3.64
2023-01-21T02:32:51.428Z,3.67
2023-01-21T02:35:26.022Z,3.62
2023-01-21T02:38:02.298Z,3.64
2023-01-21T02:40:39.715Z,3.66
2023-01-21T02:43:14.875Z,3.50
2023-01-21T02:45:50.958Z,3.39
2023-01-21T02:48:29.436Z,3.54
2023-01-21T02:50:58.064Z,3.61
2023-01-21T02:53:29.085Z,3.58
2023-01-21T02:56:02.604Z,3.66
2023-01-21T02:58:35.469Z,3.60
2023-01-21T03:01:15.949Z,3.39
2023-01-21T03:03:58.400Z,3.66
2023-01-21T03:06:50.961Z,3.61
2023-01-21T03:09:24.188Z,3.32
2023-01-21T03:12:09.070Z,3.60
2023-01-21T03:15:00.476Z,3.61
2023-01-21T03:17:37.539Z,3.48
2023-01-21T03:20:12.700Z,3.36
2023-01-21T03:22:41.592Z,3.58
2023-01-21T03:25:13.105Z,3.59
2023-01-21T03:27:44.339Z,3.43
2023-01-21T03:30:17.191Z,3.58
2023-01-21T03:32:50.611Z,3.52
2023-01-21T03:35:26.262Z,3.46
2023-01-21T03:37:59.630Z,3.40
2023-01-21T03:40:31.940Z,3.61
2023-01-21T03:43:00.438Z,3.62
2023-01-21T03:45:41.060Z,3.63
2023-01-21T03:48:15.345Z,3.55
2023-01-21T03:50:51.002Z,2.61
2023-01-21T03:53:19.551Z,3.56
2023-01-21T03:55:51.068Z,3.49
2023-01-21T03:58:19.577Z,3.35
2023-01-21T04:00:49.263Z,3.43
2023-01-21T04:03:17.629Z,3.46
2023-01-21T04:05:47.305Z,3.44
2023-01-21T04:08:15.610Z,3.39
2023-01-21T04:10:44.167Z,3.43
2023-01-21T04:13:12.486Z,3.42
2023-01-21T04:15:40.778Z,3.42
2023-01-21T04:18:09.155Z,3.42
2023-01-21T04:20:37.950Z,3.42
2023-01-21T04:23:07.707Z,3.27
2023-01-21T04:25:35.987Z,3.38
2023-01-21T04:28:04.497Z,3.23
2023-01-21T04:30:32.799Z,3.10
2023-01-21T04:33:01.134Z,2.91
2023-01-21T04:35:29.587Z,3.19
2023-01-21T04:37:57.924Z,3.33
2023-01-21T04:40:27.627Z,3.29
2023-01-21T04:42:56.017Z,3.26
2023-01-21T04:45:24.353Z,3.33
2023-01-21T04:47:52.655Z,3.31
2023-01-21T04:50:21.751Z,3.26
2023-01-21T04:52:50.008Z,3.29
2023-01-21T04:55:18.742Z,3.21
2023-01-21T04:57:48.471Z,3.19
2023-01-21T05:00:19.434Z,3.09
2023-01-21T05:02:47.890Z,2.53
2023-01-21T05:05:16.340Z,3.19
2023-01-21T05:07:44.799Z,3.05
2023-01-21T05:10:18.092Z,3.07
2023-01-21T05:12:48.530Z,3.08
2023-01-21T05:15:17.228Z,3.11
2023-01-21T05:17:45.522Z,3.03
2023-01-21T05:20:14.410Z,2.69
2023-01-21T05:22:42.715Z,3.07
2023-01-21T05:25:11.368Z,3.14
2023-01-21T05:27:39.648Z,3.15
2023-01-21T05:30:11.421Z,3.12
2023-01-21T05:32:40.890Z,3.20
2023-01-21T05:35:12.099Z,3.18
2023-01-21T05:37:43.325Z,3.14
2023-01-21T05:40:13.394Z,3.12
2023-01-21T05:42:41.931Z,3.18
2023-01-21T05:45:13.623Z,3.18
2023-01-21T05:47:42.101Z,3.14
2023-01-21T05:50:12.416Z,3.10
2023-01-21T05:52:41.329Z,2.27
2023-01-21T05:55:10.085Z,2.48
2023-01-21T05:57:38.418Z,3.14
2023-01-21T06:00:08.708Z,3.09
2023-01-21T06:02:38.409Z,3.13
2023-01-21T06:05:08.101Z,3.18
2023-01-21T06:07:36.438Z,3.15
2023-01-21T06:10:05.422Z,3.11
2023-01-21T06:12:33.800Z,3.12
2023-01-21T06:15:02.056Z,3.11
2023-01-21T06:17:30.405Z,3.16
2023-01-21T06:20:00.091Z,3.24
2023-01-21T06:22:28.373Z,3.21
2023-01-21T06:24:56.682Z,3.21
2023-01-21T06:27:25.096Z,3.16
2023-01-21T06:29:53.355Z,2.67
2023-01-21T06:32:22.049Z,3.13
2023-01-21T06:34:50.323Z,3.27
2023-01-21T06:37:20.027Z,3.30
2023-01-21T06:39:48.417Z,3.28
2023-01-21T06:42:17.929Z,3.31
2023-01-21T06:44:46.294Z,3.30
2023-01-21T06:47:15.145Z,3.11
2023-01-21T06:49:43.859Z,3.10
2023-01-21T06:52:12.224Z,3.32
2023-01-21T06:54:43.248Z,3.32
2023-01-21T06:57:12.035Z,3.02
2023-01-21T06:59:40.455Z,3.31
2023-01-21T07:02:10.430Z,3.30
2023-01-21T07:04:38.755Z,3.30
2023-01-21T07:07:07.816Z,3.30
2023-01-21T07:09:36.121Z,3.30
2023-01-21T07:12:06.294Z,3.08
2023-01-21T07:14:34.668Z,3.21
2023-01-21T07:17:03.122Z,3.18
2023-01-21T07:19:31.369Z,3.20
2023-01-21T07:22:02.087Z,2.97
2023-01-21T07:24:30.460Z,3.13
2023-01-21T07:26:58.780Z,3.20
2023-01-21T07:29:29.443Z,3.21
2023-01-21T07:31:57.742Z,3.22
2023-01-21T07:34:26.130Z,3.25
2023-01-21T07:36:54.421Z,3.24
2023-01-21T07:39:22.864Z,3.27
2023-01-21T07:41:51.247Z,3.27
2023-01-21T07:44:19.585Z,3.29
2023-01-21T07:46:49.368Z,3.27
2023-01-21T07:49:18.401Z,3.33
2023-01-21T07:51:47.280Z,3.42
2023-01-21T07:54:16.304Z,2.49
2023-01-21T07:56:44.606Z,3.46
2023-01-21T07:59:13.440Z,3.52
2023-01-21T08:01:41.883Z,3.56
2023-01-21T08:04:12.204Z,3.68
2023-01-21T08:06:41.408Z,3.76
2023-01-21T08:09:10.860Z,3.62
2023-01-21T08:11:39.308Z,3.93
2023-01-21T08:14:07.621Z,3.93
2023-01-21T08:16:36.123Z,4.07
2023-01-21T08:19:04.356Z,4.22
2023-01-21T08:21:33.967Z,4.48
2023-01-21T08:24:02.908Z,4.72
2023-01-21T08:26:31.219Z,4.88
2023-01-21T08:28:59.548Z,4.89
2023-01-21T08:31:27.915Z,5.16
2023-01-21T08:33:57.882Z,5.35
2023-01-21T08:36:26.833Z,5.31
2023-01-21T08:38:58.556Z,5.68
2023-01-21T08:41:27.000Z,5.78
2023-01-21T08:43:55.331Z,6.18
2023-01-21T08:46:23.654Z,6.31
2023-01-21T08:48:52.227Z,6.60
2023-01-21T08:51:20.600Z,6.58
2023-01-21T08:53:51.223Z,6.95
2023-01-21T08:56:20.801Z,7.11
2023-01-21T08:58:49.077Z,7.29
2023-01-21T09:01:17.489Z,7.44
2023-01-21T09:03:49.101Z,7.67
2023-01-21T09:06:17.400Z,7.61
2023-01-21T09:08:45.716Z,7.47
2023-01-21T09:11:14.094Z,7.29
2023-01-21T09:13:44.836Z,6.98
2023-01-21T09:16:18.665Z,6.85
2023-01-21T09:18:47.394Z,7.43
2023-01-21T09:21:16.836Z,7.52
2023-01-21T09:23:48.200Z,7.87
2023-01-21T09:26:19.016Z,8.14
2023-01-21T09:28:54.408Z,8.41
2023-01-21T09:31:23.958Z,8.35
2023-01-21T09:33:55.640Z,7.82
2023-01-21T09:36:26.212Z,8.28
2023-01-21T09:38:54.838Z,8.70
2023-01-21T09:41:29.087Z,8.92
2023-01-21T09:44:16.073Z,9.25
2023-01-21T09:46:52.506Z,9.31
2023-01-21T09:49:24.237Z,8.36
2023-01-21T09:52:03.380Z,7.17
2023-01-21T09:54:34.558Z,7.50
2023-01-21T09:57:27.657Z,7.81
2023-01-21T10:00:13.437Z,8.16
2023-01-21T10:02:51.286Z,7.26
2023-01-21T10:05:42.564Z,6.59
2023-01-21T10:08:19.295Z,7.49
2023-01-21T10:10:53.405Z,8.15
2023-01-21T10:13:39.700Z,8.48
2023-01-21T10:16:19.135Z,8.83
2023-01-21T10:18:51.784Z,9.33
2023-01-21T10:21:33.367Z,9.51
2023-01-21T10:24:08.007Z,8.73
2023-01-21T10:26:36.708Z,8.80
2023-01-21T10:29:05.763Z,8.23
2023-01-21T10:31:41.797Z,7.75
2023-01-21T10:34:15.056Z,5.94
2023-01-21T10:36:55.385Z,6.04
2023-01-21T10:39:40.416Z,5.71
2023-01-21T10:42:23.649Z,4.62
2023-01-21T10:45:00.976Z,5.62
2023-01-21T10:47:40.926Z,5.53
2023-01-21T10:50:28.977Z,5.31
2023-01-21T10:53:02.348Z,5.96
2023-01-21T10:56:03.284Z,5.70
2023-01-21T10:58:37.645Z,6.14
2023-01-21T11:01:13.700Z,7.11
2023-01-21T11:03:46.137Z,7.41
2023-01-21T11:06:19.187Z,6.88
2023-01-21T11:08:52.547Z,7.46
2023-01-21T11:11:28.394Z,7.42
2023-01-21T11:13:57.245Z,7.59
2023-01-21T11:16:46.483Z,8.03
2023-01-21T11:19:18.815Z,8.28
2023-01-21T11:22:01.559Z,8.56
2023-01-21T11:24:32.084Z,8.76
2023-01-21T11:27:02.349Z,8.72
2023-01-21T11:29:42.004Z,8.69
2023-01-21T11:32:20.645Z,8.86
2023-01-21T11:34:52.037Z,8.96
2023-01-21T11:37:25.200Z,8.50
2023-01-21T11:39:57.263Z,8.42
2023-01-21T11:42:26.198Z,8.67
2023-01-21T11:44:57.564Z,8.72
2023-01-21T11:47:38.886Z,8.61
2023-01-21T11:50:16.757Z,8.72
2023-01-21T11:52:45.438Z,8.49
2023-01-21T11:55:24.745Z,8.51
2023-01-21T11:57:55.441Z,7.23
2023-01-21T12:00:25.337Z,7.23
2023-01-21T12:02:58.211Z,7.58
2023-01-21T12:05:33.989Z,6.67
2023-01-21T12:08:04.119Z,5.89
2023-01-21T12:10:36.133Z,4.84
2023-01-21T12:13:24.409Z,4.40
2023-01-21T12:16:29.034Z,4.91
2023-01-21T12:19:33.040Z,5.20
2023-01-21T12:22:36.655Z,4.25
2023-01-21T12:25:26.535Z,4.13
2023-01-21T12:28:16.942Z,3.99
2023-01-21T12:30:57.775Z,4.89
2023-01-21T12:33:46.518Z,4.66
2023-01-21T12:36:20.534Z,4.21
2023-01-21T12:38:57.343Z,4.27
2023-01-21T12:41:30.749Z,4.14
2023-01-21T12:44:15.473Z,4.41
2023-01-21T12:46:48.617Z,4.59
2023-01-21T12:49:22.040Z,4.80
2023-01-21T12:51:55.619Z,4.96
2023-01-21T12:54:37.151Z,5.00
2023-01-21T12:57:17.701Z,5.79
2023-01-21T12:59:53.527Z,6.30
2023-01-21T13:02:30.043Z,5.93
2023-01-21T13:05:04.753Z,5.84
2023-01-21T13:07:44.752Z,5.93
2023-01-21T13:10:23.299Z,5.46
2023-01-21T13:12:57.282Z,5.30
2023-01-21T13:15:31.421Z,5.77
2023-01-21T13:18:05.775Z,6.34
2023-01-21T13:20:41.429Z,7.04
2023-01-21T13:23:16.833Z,7.41
2023-01-21T13:25:55.354Z,7.62
2023-01-21T13:28:31.657Z,7.92
2023-01-21T13:31:09.085Z,8.33
2023-01-21T13:33:48.087Z,8.10
2023-01-21T13:36:40.343Z,7.95
2023-01-21T13:39:22.761Z,7.31
2023-01-21T13:42:08.743Z,7.81
2023-01-21T13:45:08.586Z,8.28
2023-01-21T13:48:14.302Z,8.60
2023-01-21T13:50:58.748Z,8.47
2023-01-21T13:53:44.675Z,8.55
2023-01-21T13:56:41.006Z,9.01
2023-01-21T13:59:17.602Z,9.15
2023-01-21T14:01:50.821Z,8.37
2023-01-21T14:04:26.859Z,9.09
2023-01-21T14:07:02.035Z,8.45
2023-01-21T14:09:38.389Z,8.77
2023-01-21T14:12:13.404Z,6.87
2023-01-21T14:15:19.116Z,6.31
2023-01-21T14:18:15.393Z,6.55
2023-01-21T14:21:08.792Z,6.25
2023-01-21T14:23:55.680Z,6.47
2023-01-21T14:26:54.418Z,6.00
2023-01-21T14:29:34.877Z,6.49
2023-01-21T14:32:15.431Z,5.57
2023-01-21T14:34:55.426Z,5.43
2023-01-21T14:37:30.837Z,5.20
2023-01-21T14:40:11.100Z,5.30
2023-01-21T14:42:46.257Z,5.60
2023-01-21T14:45:16.699Z,5.84
2023-01-21T14:47:48.247Z,5.92
2023-01-21T14:50:47.111Z,6.34
2023-01-21T14:53:23.917Z,6.57
2023-01-21T14:56:10.603Z,7.23
2023-01-21T14:58:39.592Z,7.00
2023-01-21T15:01:08.272Z,7.34
2023-01-21T15:03:49.536Z,7.68
2023-01-21T15:06:23.364Z,7.68
2023-01-21T15:08:54.882Z,8.05
2023-01-21T15:11:30.357Z,8.34
2023-01-21T15:14:13.488Z,8.54
2023-01-21T15:16:43.532Z,8.64
2023-01-21T15:19:34.568Z,8.64
2023-01-21T15:22:18.338Z,8.71
2023-01-21T15:25:34.266Z,8.69
2023-01-21T15:28:43.784Z,8.79
2023-01-21T15:31:40.015Z,8.79
2023-01-21T15:34:15.632Z,8.71
2023-01-21T15:36:57.107Z,8.69
2023-01-21T15:39:32.516Z,8.65
2023-01-21T15:42:17.371Z,8.54
2023-01-21T15:45:23.593Z,8.53
2023-01-21T15:48:14.043Z,8.33
2023-01-21T15:50:49.900Z,8.33
2023-01-21T15:53:39.817Z,8.25
2023-01-21T15:56:36.791Z,8.19
2023-01-21T15:59:21.747Z,8.13
2023-01-21T16:02:10.255Z,8.01
2023-01-21T16:04:47.414Z,7.96
2023-01-21T16:07:26.190Z,7.87
2023-01-21T16:10:07.928Z,7.72
2023-01-21T16:12:47.824Z,7.63
2023-01-21T16:15:26.656Z,7.43
2023-01-21T16:18:09.214Z,7.01
2023-01-21T16:20:37.943Z,6.68
2023-01-21T16:23:08.919Z,6.86
2023-01-21T16:25:47.524Z,5.91
2023-01-21T16:28:16.211Z,4.79
2023-01-21T16:30:55.716Z,3.48
2023-01-21T16:33:24.335Z,3.03
2023-01-21T16:35:56.190Z,2.83
2023-01-21T16:38:27.539Z,2.44
2023-01-21T16:41:25.245Z,2.87
2023-01-21T16:43:57.074Z,2.54
2023-01-21T16:46:28.534Z,2.54
2023-01-21T16:48:58.656Z,1.77
2023-01-21T16:51:32.606Z,1.33
2023-01-21T16:54:27.771Z,2.02
2023-01-21T16:57:00.970Z,1.72
2023-01-21T16:59:33.461Z,1.90
2023-01-21T17:02:02.315Z,2.19
2023-01-21T17:04:31.467Z,2.48
2023-01-21T17:07:00.469Z,2.76
2023-01-21T17:09:33.171Z,2.67
2023-01-21T17:12:08.663Z,2.82
2023-01-21T17:14:38.139Z,3.14
2023-01-21T17:17:09.264Z,3.28
2023-01-21T17:19:45.732Z,3.35
2023-01-21T17:22:18.905Z,3.38
2023-01-21T17:25:02.353Z,3.12
2023-01-21T17:27:33.421Z,2.83
2023-01-21T17:30:29.812Z,1.91
2023-01-21T17:33:00.523Z,2.31
2023-01-21T17:35:32.966Z,2.27
2023-01-21T17:38:03.308Z,2.49
2023-01-21T17:40:34.349Z,2.82
2023-01-21T17:43:19.302Z,3.02
2023-01-21T17:45:50.015Z,2.84
2023-01-21T17:48:27.467Z,2.99
2023-01-21T17:50:56.643Z,3.10
2023-01-21T17:53:30.907Z,3.33
2023-01-21T17:56:05.755Z,3.41
2023-01-21T17:58:49.411Z,3.48
2023-01-21T18:01:20.246Z,3.16
2023-01-21T18:03:48.763Z,3.58
2023-01-21T18:06:21.785Z,3.69
2023-01-21T18:08:51.446Z,3.73
2023-01-21T18:11:20.112Z,3.75
2023-01-21T18:13:50.307Z,3.78
2023-01-21T18:16:18.785Z,3.85
2023-01-21T18:18:47.166Z,3.91
2023-01-21T18:21:21.336Z,3.94
2023-01-21T18:23:52.908Z,3.55
2023-01-21T18:26:34.808Z,3.52
2023-01-21T18:29:04.634Z,3.56
2023-01-21T18:31:33.131Z,3.78
2023-01-21T18:34:01.652Z,3.89
2023-01-21T18:36:30.636Z,3.49
2023-01-21T18:38:58.926Z,3.63
2023-01-21T18:41:27.229Z,3.80
2023-01-21T18:43:55.659Z,3.91
2023-01-21T18:46:25.395Z,4.03
2023-01-21T18:48:54.060Z,4.10
2023-01-21T18:51:22.501Z,4.16
2023-01-21T18:53:50.979Z,4.25
2023-01-21T18:56:19.452Z,4.17
2023-01-21T18:58:47.825Z,4.33
2023-01-21T19:01:23.205Z,4.33
2023-01-21T19:03:55.615Z,4.31
2023-01-21T19:06:26.025Z,3.57
2023-01-21T19:08:55.196Z,4.41
2023-01-21T19:11:23.842Z,4.34
2023-01-21T19:13:52.655Z,4.32
2023-01-21T19:16:22.871Z,4.09
2023-01-21T19:18:51.554Z,4.25
2023-01-21T19:21:21.221Z,4.32
2023-01-21T19:23:49.522Z,4.24
2023-01-21T19:26:18.264Z,3.31
2023-01-21T19:28:46.555Z,3.89
2023-01-21T19:31:14.894Z,4.05
2023-01-21T19:33:45.734Z,4.19
2023-01-21T19:36:19.752Z,4.06
2023-01-21T19:38:55.317Z,4.08
2023-01-21T19:41:24.387Z,4.31
2023-01-21T19:43:52.843Z,4.22
2023-01-21T19:46:23.377Z,4.43
2023-01-21T19:48:53.511Z,4.44
2023-01-21T19:51:22.029Z,4.46
2023-01-21T19:53:51.739Z,4.45
2023-01-21T19:56:24.984Z,4.46
2023-01-21T19:58:53.439Z,4.41
2023-01-21T20:01:21.882Z,4.35
2023-01-21T20:03:59.632Z,4.16
2023-01-21T20:06:31.733Z,4.38
2023-01-21T20:09:02.251Z,4.35
2023-01-21T20:11:30.422Z,4.49
2023-01-21T20:13:59.090Z,4.34
2023-01-21T20:16:27.579Z,4.51
2023-01-21T20:18:56.373Z,4.50
2023-01-21T20:21:25.003Z,4.48
2023-01-21T20:23:53.333Z,4.49
2023-01-21T20:26:27.339Z,4.56
2023-01-21T20:28:55.736Z,4.54
2023-01-21T20:31:24.368Z,4.32
2023-01-21T20:33:53.056Z,4.32
2023-01-21T20:36:24.406Z,4.25
2023-01-21T20:38:54.072Z,4.28
2023-01-21T20:41:24.060Z,4.32
2023-01-21T20:43:52.458Z,4.35
2023-01-21T20:46:24.780Z,4.35
2023-01-21T20:48:53.413Z,4.59
2023-01-21T20:51:22.255Z,4.60
2023-01-21T20:53:50.712Z,4.58
2023-01-21T20:56:26.978Z,4.48
2023-01-21T20:58:55.470Z,4.50
2023-01-21T21:01:26.491Z,4.34
2023-01-21T21:03:54.978Z,4.35
2023-01-21T21:06:26.150Z,4.44
2023-01-21T21:08:54.561Z,4.39
2023-01-21T21:11:25.679Z,4.31
2023-01-21T21:13:54.275Z,4.22
2023-01-21T21:16:26.280Z,4.19
2023-01-21T21:18:56.227Z,4.23
2023-01-21T21:21:25.327Z,4.30
2023-01-21T21:23:54.047Z,4.16
2023-01-21T21:26:26.464Z,4.04
2023-01-21T21:28:57.268Z,4.01
2023-01-21T21:31:27.553Z,3.91
2023-01-21T21:33:55.889Z,3.93
2023-01-21T21:36:25.056Z,3.86
2023-01-21T21:38:56.082Z,3.77
2023-01-21T21:41:44.785Z,3.69
2023-01-21T21:44:13.963Z,3.82
2023-01-21T21:47:00.292Z,3.86
2023-01-21T21:49:29.287Z,3.80
2023-01-21T21:51:59.775Z,3.62
2023-01-21T21:54:27.902Z,3.81
2023-01-21T21:56:58.332Z,3.58
2023-01-21T21:59:26.749Z,3.53
2023-01-21T22:01:55.120Z,3.54
2023-01-21T22:04:23.802Z,3.51
2023-01-21T22:06:52.051Z,3.42
2023-01-21T22:09:20.748Z,3.55
2023-01-21T22:11:49.044Z,3.43
2023-01-21T22:14:18.895Z,3.42
2023-01-21T22:16:49.676Z,3.35
2023-01-21T22:19:18.246Z,3.39
2023-01-21T22:21:46.755Z,3.41
2023-01-21T22:24:15.714Z,3.38
2023-01-21T22:26:44.116Z,3.38
2023-01-21T22:29:12.891Z,3.36
2023-01-21T22:31:43.455Z,3.46
2023-01-21T22:34:12.811Z,3.40
2023-01-21T22:36:42.084Z,3.47
2023-01-21T22:39:11.618Z,3.46
2023-01-21T22:41:39.891Z,3.25
2023-01-21T22:44:08.259Z,3.38
2023-01-21T22:46:36.600Z,3.32
2023-01-21T22:49:06.541Z,3.30
2023-01-21T22:51:34.971Z,3.22
2023-01-21T22:54:03.318Z,3.03
2023-01-21T22:56:50.496Z,3.18
2023-01-21T22:59:19.940Z,3.10
2023-01-21T23:01:48.769Z,3.05
2023-01-21T23:04:18.567Z,3.00
2023-01-21T23:06:48.673Z,2.91
2023-01-21T23:09:17.686Z,2.86
2023-01-21T23:11:45.964Z,2.82
2023-01-21T23:14:14.534Z,2.67
2023-01-21T23:16:42.876Z,2.70
2023-01-21T23:19:11.332Z,2.38
2023-01-21T23:21:41.406Z,2.66
2023-01-21T23:24:10.220Z,2.73
2023-01-21T23:26:38.784Z,2.70
2023-01-21T23:29:07.150Z,2.77
2023-01-21T23:31:35.707Z,2.66
2023-01-21T23:34:04.319Z,2.79
2023-01-21T23:36:32.651Z,3.00
2023-01-21T23:39:02.354Z,3.06
2023-01-21T23:41:30.661Z,3.14
2023-01-21T23:44:00.857Z,3.37
2023-01-21T23:46:29.393Z,3.35
2023-01-21T23:48:57.675Z,3.57
2023-01-21T23:51:26.204Z,3.21
2023-01-21T23:53:54.486Z,3.73
2023-01-21T23:56:26.163Z,3.91
2023-01-21T23:58:54.652Z,3.96
